sensor_id;sensor_type;location;lat;lon;timestamp;P1;durP1;ratioP1;P2;durP2;ratioP2
43014;SDS011;28637;50.554;7.032;2023-08-21T00:02:12;11.40;;;5.17;;
43014;SDS011;28637;50.554;7.032;2023-08-21T00:07:13;11.90;;;6.50;;
43014;SDS011;28637;50.554;7.032;2023-08-21T00:12:13;11.00;;;5.63;;
43014;SDS011;28637;50.554;7.032;2023-08-21T00:17:14;9.83;;;5.93;;
43014;SDS011;28637;50.554;7.032;2023-08-21T00:22:15;6.60;;;5.73;;
43014;SDS011;28637;50.554;7.032;2023-08-21T00:27:15;7.88;;;6.10;;
43014;SDS011;28637;50.554;7.032;2023-08-21T00:32:16;9.53;;;5.90;;
43014;SDS011;28637;50.554;7.032;2023-08-21T00:37:17;9.13;;;6.23;;
43014;SDS011;28637;50.554;7.032;2023-08-21T00:42:17;10.73;;;6.00;;
43014;SDS011;28637;50.554;7.032;2023-08-21T00:47:18;7.47;;;6.30;;
43014;SDS011;28637;50.554;7.032;2023-08-21T00:52:19;7.90;;;6.15;;
43014;SDS011;28637;50.554;7.032;2023-08-21T00:57:20;7.80;;;6.23;;
43014;SDS011;28637;50.554;7.032;2023-08-21T01:02:21;8.77;;;6.47;;
43014;SDS011;28637;50.554;7.032;2023-08-21T01:07:22;8.37;;;7.07;;
43014;SDS011;28637;50.554;7.032;2023-08-21T01:12:29;7.72;;;6.25;;
43014;SDS011;28637;50.554;7.032;2023-08-21T01:17:36;6.95;;;5.97;;
43014;SDS011;28637;50.554;7.032;2023-08-21T01:22:38;8.63;;;6.15;;
43014;SDS011;28637;50.554;7.032;2023-08-21T01:27:43;7.80;;;6.15;;
43014;SDS011;28637;50.554;7.032;2023-08-21T01:37:51;8.95;;;7.13;;
43014;SDS011;28637;50.554;7.032;2023-08-21T01:42:55;9.45;;;6.88;;
43014;SDS011;28637;50.554;7.032;2023-08-21T01:47:55;7.70;;;6.50;;
43014;SDS011;28637;50.554;7.032;2023-08-21T01:52:56;7.50;;;5.93;;
43014;SDS011;28637;50.554;7.032;2023-08-21T01:57:57;8.77;;;6.22;;
43014;SDS011;28637;50.554;7.032;2023-08-21T02:02:58;8.65;;;6.38;;
43014;SDS011;28637;50.554;7.032;2023-08-21T02:07:58;7.33;;;6.20;;
43014;SDS011;28637;50.554;7.032;2023-08-21T02:12:59;8.75;;;5.82;;
43014;SDS011;28637;50.554;7.032;2023-08-21T02:18:00;8.47;;;6.73;;
43014;SDS011;28637;50.554;7.032;2023-08-21T02:23:01;9.05;;;6.90;;
43014;SDS011;28637;50.554;7.032;2023-08-21T02:28:02;8.50;;;6.85;;
43014;SDS011;28637;50.554;7.032;2023-08-21T02:33:04;10.93;;;6.97;;
43014;SDS011;28637;50.554;7.032;2023-08-21T02:38:04;8.87;;;6.63;;
43014;SDS011;28637;50.554;7.032;2023-08-21T02:43:05;8.13;;;7.20;;
43014;SDS011;28637;50.554;7.032;2023-08-21T02:48:06;10.83;;;7.23;;
43014;SDS011;28637;50.554;7.032;2023-08-21T02:53:07;8.23;;;6.82;;
43014;SDS011;28637;50.554;7.032;2023-08-21T02:58:08;9.73;;;6.57;;
43014;SDS011;28637;50.554;7.032;2023-08-21T03:03:09;9.55;;;6.25;;
43014;SDS011;28637;50.554;7.032;2023-08-21T03:08:11;9.88;;;6.80;;
43014;SDS011;28637;50.554;7.032;2023-08-21T03:13:12;9.30;;;6.80;;
43014;SDS011;28637;50.554;7.032;2023-08-21T03:18:12;8.37;;;6.33;;
43014;SDS011;28637;50.554;7.032;2023-08-21T03:23:13;10.07;;;6.27;;
43014;SDS011;28637;50.554;7.032;2023-08-21T03:28:14;8.48;;;6.40;;
43014;SDS011;28637;50.554;7.032;2023-08-21T03:33:15;8.20;;;6.40;;
43014;SDS011;28637;50.554;7.032;2023-08-21T03:38:15;8.00;;;6.60;;
43014;SDS011;28637;50.554;7.032;2023-08-21T03:43:16;8.53;;;6.70;;
43014;SDS011;28637;50.554;7.032;2023-08-21T03:48:17;7.93;;;6.60;;
43014;SDS011;28637;50.554;7.032;2023-08-21T03:53:17;8.90;;;6.73;;
43014;SDS011;28637;50.554;7.032;2023-08-21T04:03:20;9.30;;;6.13;;
43014;SDS011;28637;50.554;7.032;2023-08-21T04:13:21;6.43;;;5.83;;
43014;SDS011;28637;50.554;7.032;2023-08-21T04:18:22;7.70;;;6.37;;
43014;SDS011;28637;50.554;7.032;2023-08-21T04:28:24;6.73;;;5.77;;
43014;SDS011;28637;50.554;7.032;2023-08-21T04:33:25;7.80;;;6.23;;
43014;SDS011;28637;50.554;7.032;2023-08-21T04:38:28;7.32;;;6.05;;
43014;SDS011;28637;50.554;7.032;2023-08-21T04:43:28;8.47;;;5.93;;
43014;SDS011;28637;50.554;7.032;2023-08-21T04:48:29;8.30;;;6.03;;
43014;SDS011;28637;50.554;7.032;2023-08-21T04:53:30;7.07;;;6.27;;
43014;SDS011;28637;50.554;7.032;2023-08-21T04:58:30;8.60;;;6.73;;
43014;SDS011;28637;50.554;7.032;2023-08-21T05:03:31;8.68;;;6.55;;
43014;SDS011;28637;50.554;7.032;2023-08-21T05:08:32;9.77;;;6.33;;
43014;SDS011;28637;50.554;7.032;2023-08-21T05:13:33;7.30;;;6.15;;
43014;SDS011;28637;50.554;7.032;2023-08-21T05:18:34;9.32;;;6.70;;
43014;SDS011;28637;50.554;7.032;2023-08-21T05:23:35;7.97;;;6.10;;
43014;SDS011;28637;50.554;7.032;2023-08-21T05:28:35;9.57;;;6.43;;
43014;SDS011;28637;50.554;7.032;2023-08-21T05:33:36;8.27;;;6.53;;
43014;SDS011;28637;50.554;7.032;2023-08-21T05:38:37;11.48;;;6.43;;
43014;SDS011;28637;50.554;7.032;2023-08-21T05:43:37;9.20;;;6.40;;
43014;SDS011;28637;50.554;7.032;2023-08-21T05:48:39;7.28;;;6.63;;
43014;SDS011;28637;50.554;7.032;2023-08-21T05:53:40;8.18;;;7.07;;
43014;SDS011;28637;50.554;7.032;2023-08-21T05:58:41;7.37;;;6.67;;
43014;SDS011;28637;50.554;7.032;2023-08-21T06:03:42;8.15;;;6.88;;
43014;SDS011;28637;50.554;7.032;2023-08-21T06:08:43;7.07;;;6.38;;
43014;SDS011;28637;50.554;7.032;2023-08-21T06:13:44;8.87;;;6.57;;
43014;SDS011;28637;50.554;7.032;2023-08-21T06:18:45;7.60;;;6.37;;
43014;SDS011;28637;50.554;7.032;2023-08-21T06:23:45;8.03;;;6.80;;
43014;SDS011;28637;50.554;7.032;2023-08-21T06:28:46;8.43;;;6.43;;
43014;SDS011;28637;50.554;7.032;2023-08-21T06:33:47;9.33;;;6.10;;
43014;SDS011;28637;50.554;7.032;2023-08-21T06:38:47;7.22;;;6.53;;
43014;SDS011;28637;50.554;7.032;2023-08-21T06:43:48;6.97;;;6.03;;
43014;SDS011;28637;50.554;7.032;2023-08-21T06:48:49;7.03;;;6.32;;
43014;SDS011;28637;50.554;7.032;2023-08-21T06:53:53;9.15;;;6.93;;
43014;SDS011;28637;50.554;7.032;2023-08-21T06:58:53;8.25;;;7.45;;
43014;SDS011;28637;50.554;7.032;2023-08-21T07:03:55;8.13;;;7.28;;
43014;SDS011;28637;50.554;7.032;2023-08-21T07:08:56;10.25;;;7.97;;
43014;SDS011;28637;50.554;7.032;2023-08-21T07:13:56;8.98;;;7.47;;
43014;SDS011;28637;50.554;7.032;2023-08-21T07:18:57;11.23;;;7.82;;
43014;SDS011;28637;50.554;7.032;2023-08-21T07:23:58;7.57;;;6.78;;
43014;SDS011;28637;50.554;7.032;2023-08-21T07:28:59;8.52;;;6.80;;
43014;SDS011;28637;50.554;7.032;2023-08-21T07:33:59;8.68;;;6.72;;
43014;SDS011;28637;50.554;7.032;2023-08-21T07:39:00;9.55;;;6.90;;
43014;SDS011;28637;50.554;7.032;2023-08-21T07:44:01;7.10;;;6.20;;
43014;SDS011;28637;50.554;7.032;2023-08-21T07:54:02;7.10;;;6.40;;
43014;SDS011;28637;50.554;7.032;2023-08-21T08:04:03;8.63;;;5.83;;
43014;SDS011;28637;50.554;7.032;2023-08-21T08:09:04;7.30;;;6.28;;
43014;SDS011;28637;50.554;7.032;2023-08-21T08:19:06;6.73;;;6.03;;
43014;SDS011;28637;50.554;7.032;2023-08-21T08:24:07;6.28;;;5.60;;
43014;SDS011;28637;50.554;7.032;2023-08-21T08:34:09;6.30;;;5.70;;
43014;SDS011;28637;50.554;7.032;2023-08-21T08:39:10;5.90;;;5.30;;
43014;SDS011;28637;50.554;7.032;2023-08-21T08:44:10;7.85;;;6.13;;
43014;SDS011;28637;50.554;7.032;2023-08-21T08:49:15;6.90;;;5.57;;
43014;SDS011;28637;50.554;7.032;2023-08-21T08:54:16;9.48;;;6.25;;
43014;SDS011;28637;50.554;7.032;2023-08-21T08:59:18;6.47;;;5.50;;
43014;SDS011;28637;50.554;7.032;2023-08-21T09:04:19;7.43;;;6.15;;
43014;SDS011;28637;50.554;7.032;2023-08-21T09:09:21;6.40;;;5.78;;
43014;SDS011;28637;50.554;7.032;2023-08-21T09:14:26;7.25;;;5.80;;
43014;SDS011;28637;50.554;7.032;2023-08-21T09:19:28;6.30;;;5.30;;
43014;SDS011;28637;50.554;7.032;2023-08-21T09:24:29;5.78;;;5.13;;
43014;SDS011;28637;50.554;7.032;2023-08-21T09:29:39;6.13;;;5.35;;
43014;SDS011;28637;50.554;7.032;2023-08-21T09:34:43;6.75;;;5.03;;
43014;SDS011;28637;50.554;7.032;2023-08-21T09:39:45;11.15;;;5.35;;
43014;SDS011;28637;50.554;7.032;2023-08-21T09:44:46;9.07;;;5.10;;
43014;SDS011;28637;50.554;7.032;2023-08-21T09:49:51;8.07;;;5.20;;
43014;SDS011;28637;50.554;7.032;2023-08-21T09:54:53;7.30;;;5.28;;
43014;SDS011;28637;50.554;7.032;2023-08-21T09:59:55;8.23;;;4.68;;
43014;SDS011;28637;50.554;7.032;2023-08-21T10:04:58;8.20;;;5.10;;
43014;SDS011;28637;50.554;7.032;2023-08-21T10:10:00;8.93;;;5.28;;
43014;SDS011;28637;50.554;7.032;2023-08-21T10:15:01;7.47;;;5.70;;
43014;SDS011;28637;50.554;7.032;2023-08-21T10:20:04;8.73;;;5.93;;
43014;SDS011;28637;50.554;7.032;2023-08-21T10:25:13;8.10;;;5.68;;
43014;SDS011;28637;50.554;7.032;2023-08-21T10:30:16;7.93;;;5.80;;
43014;SDS011;28637;50.554;7.032;2023-08-21T10:35:21;8.02;;;5.85;;
43014;SDS011;28637;50.554;7.032;2023-08-21T10:40:24;8.77;;;5.32;;
43014;SDS011;28637;50.554;7.032;2023-08-21T10:45:25;6.30;;;5.40;;
43014;SDS011;28637;50.554;7.032;2023-08-21T10:50:25;6.65;;;6.05;;
43014;SDS011;28637;50.554;7.032;2023-08-21T10:55:26;7.80;;;6.20;;
43014;SDS011;28637;50.554;7.032;2023-08-21T11:00:28;10.90;;;5.10;;
43014;SDS011;28637;50.554;7.032;2023-08-21T11:05:29;7.30;;;5.32;;
43014;SDS011;28637;50.554;7.032;2023-08-21T11:10:30;9.95;;;5.43;;
43014;SDS011;28637;50.554;7.032;2023-08-21T11:15:31;8.48;;;5.28;;
43014;SDS011;28637;50.554;7.032;2023-08-21T11:20:33;7.90;;;4.88;;
43014;SDS011;28637;50.554;7.032;2023-08-21T11:25:37;6.55;;;4.60;;
43014;SDS011;28637;50.554;7.032;2023-08-21T11:30:40;7.80;;;4.43;;
43014;SDS011;28637;50.554;7.032;2023-08-21T11:35:41;6.00;;;4.25;;
43014;SDS011;28637;50.554;7.032;2023-08-21T11:40:42;5.53;;;3.97;;
43014;SDS011;28637;50.554;7.032;2023-08-21T11:45:42;6.50;;;5.30;;
43014;SDS011;28637;50.554;7.032;2023-08-21T11:50:47;8.07;;;4.50;;
43014;SDS011;28637;50.554;7.032;2023-08-21T11:55:48;9.48;;;4.57;;
43014;SDS011;28637;50.554;7.032;2023-08-21T12:00:49;5.15;;;4.35;;
43014;SDS011;28637;50.554;7.032;2023-08-21T12:05:50;7.47;;;4.20;;
43014;SDS011;28637;50.554;7.032;2023-08-21T12:10:50;4.65;;;4.10;;
43014;SDS011;28637;50.554;7.032;2023-08-21T12:15:54;6.18;;;4.40;;
43014;SDS011;28637;50.554;7.032;2023-08-21T12:20:55;6.93;;;4.55;;
43014;SDS011;28637;50.554;7.032;2023-08-21T12:25:55;5.82;;;4.30;;
43014;SDS011;28637;50.554;7.032;2023-08-21T12:30:56;27.50;;;4.80;;
43014;SDS011;28637;50.554;7.032;2023-08-21T12:35:57;6.40;;;4.50;;
43014;SDS011;28637;50.554;7.032;2023-08-21T12:40:58;7.22;;;4.25;;
43014;SDS011;28637;50.554;7.032;2023-08-21T12:45:58;7.50;;;4.50;;
43014;SDS011;28637;50.554;7.032;2023-08-21T12:50:59;6.63;;;3.95;;
43014;SDS011;28637;50.554;7.032;2023-08-21T12:56:00;8.95;;;4.47;;
43014;SDS011;28637;50.554;7.032;2023-08-21T13:01:01;4.38;;;3.67;;
43014;SDS011;28637;50.554;7.032;2023-08-21T13:06:03;8.65;;;4.40;;
43014;SDS011;28637;50.554;7.032;2023-08-21T13:11:04;7.50;;;4.25;;
43014;SDS011;28637;50.554;7.032;2023-08-21T13:16:05;4.55;;;3.90;;
43014;SDS011;28637;50.554;7.032;2023-08-21T13:21:06;6.30;;;4.20;;
43014;SDS011;28637;50.554;7.032;2023-08-21T13:26:07;6.93;;;4.00;;
43014;SDS011;28637;50.554;7.032;2023-08-21T13:31:09;5.10;;;4.03;;
43014;SDS011;28637;50.554;7.032;2023-08-21T13:36:11;6.50;;;4.00;;
43014;SDS011;28637;50.554;7.032;2023-08-21T13:41:11;6.95;;;3.92;;
43014;SDS011;28637;50.554;7.032;2023-08-21T13:46:12;6.80;;;4.72;;
43014;SDS011;28637;50.554;7.032;2023-08-21T13:51:13;6.20;;;4.20;;
43014;SDS011;28637;50.554;7.032;2023-08-21T13:56:13;7.38;;;4.07;;
43014;SDS011;28637;50.554;7.032;2023-08-21T14:01:14;5.90;;;4.05;;
43014;SDS011;28637;50.554;7.032;2023-08-21T14:06:15;6.13;;;3.85;;
43014;SDS011;28637;50.554;7.032;2023-08-21T14:11:16;6.80;;;4.38;;
43014;SDS011;28637;50.554;7.032;2023-08-21T14:16:17;6.78;;;4.20;;
43014;SDS011;28637;50.554;7.032;2023-08-21T14:21:18;4.35;;;3.53;;
43014;SDS011;28637;50.554;7.032;2023-08-21T14:26:18;6.63;;;4.13;;
43014;SDS011;28637;50.554;7.032;2023-08-21T14:31:19;5.30;;;4.05;;
43014;SDS011;28637;50.554;7.032;2023-08-21T14:36:20;5.80;;;3.72;;
43014;SDS011;28637;50.554;7.032;2023-08-21T14:41:21;4.78;;;3.38;;
43014;SDS011;28637;50.554;7.032;2023-08-21T14:46:22;3.95;;;3.30;;
43014;SDS011;28637;50.554;7.032;2023-08-21T14:51:22;6.65;;;3.33;;
43014;SDS011;28637;50.554;7.032;2023-08-21T14:56:23;4.75;;;3.15;;
43014;SDS011;28637;50.554;7.032;2023-08-21T15:01:24;5.75;;;3.00;;
43014;SDS011;28637;50.554;7.032;2023-08-21T15:06:24;7.10;;;2.60;;
43014;SDS011;28637;50.554;7.032;2023-08-21T15:11:26;5.00;;;2.67;;
43014;SDS011;28637;50.554;7.032;2023-08-21T15:16:27;3.45;;;2.38;;
43014;SDS011;28637;50.554;7.032;2023-08-21T15:21:27;2.78;;;2.33;;
43014;SDS011;28637;50.554;7.032;2023-08-21T15:26:28;6.63;;;2.72;;
43014;SDS011;28637;50.554;7.032;2023-08-21T15:31:29;3.60;;;2.50;;
43014;SDS011;28637;50.554;7.032;2023-08-21T15:36:30;6.75;;;2.60;;
43014;SDS011;28637;50.554;7.032;2023-08-21T15:41:31;2.97;;;2.17;;
43014;SDS011;28637;50.554;7.032;2023-08-21T15:46:31;6.65;;;2.10;;
43014;SDS011;28637;50.554;7.032;2023-08-21T15:51:32;4.22;;;2.20;;
43014;SDS011;28637;50.554;7.032;2023-08-21T15:56:33;4.38;;;2.40;;
43014;SDS011;28637;50.554;7.032;2023-08-21T16:01:33;2.42;;;1.90;;
43014;SDS011;28637;50.554;7.032;2023-08-21T16:06:34;5.43;;;2.20;;
43014;SDS011;28637;50.554;7.032;2023-08-21T16:11:35;5.50;;;2.00;;
43014;SDS011;28637;50.554;7.032;2023-08-21T16:16:36;4.75;;;2.15;;
43014;SDS011;28637;50.554;7.032;2023-08-21T16:21:37;5.88;;;2.22;;
43014;SDS011;28637;50.554;7.032;2023-08-21T16:26:38;5.18;;;1.95;;
43014;SDS011;28637;50.554;7.032;2023-08-21T16:31:38;4.18;;;2.30;;
43014;SDS011;28637;50.554;7.032;2023-08-21T16:36:39;7.15;;;2.25;;
43014;SDS011;28637;50.554;7.032;2023-08-21T16:41:39;3.85;;;1.85;;
43014;SDS011;28637;50.554;7.032;2023-08-21T16:46:41;3.53;;;1.88;;
43014;SDS011;28637;50.554;7.032;2023-08-21T16:51:42;5.88;;;2.10;;
43014;SDS011;28637;50.554;7.032;2023-08-21T16:56:43;4.25;;;1.90;;
43014;SDS011;28637;50.554;7.032;2023-08-21T17:01:43;5.78;;;2.08;;
43014;SDS011;28637;50.554;7.032;2023-08-21T17:06:44;3.80;;;1.90;;
43014;SDS011;28637;50.554;7.032;2023-08-21T17:11:45;3.58;;;1.80;;
43014;SDS011;28637;50.554;7.032;2023-08-21T17:16:45;4.70;;;1.92;;
43014;SDS011;28637;50.554;7.032;2023-08-21T17:21:46;3.88;;;2.10;;
43014;SDS011;28637;50.554;7.032;2023-08-21T17:26:47;3.35;;;2.00;;
43014;SDS011;28637;50.554;7.032;2023-08-21T17:31:49;4.15;;;1.70;;
43014;SDS011;28637;50.554;7.032;2023-08-21T17:36:50;3.70;;;1.70;;
43014;SDS011;28637;50.554;7.032;2023-08-21T17:41:52;3.92;;;1.60;;
43014;SDS011;28637;50.554;7.032;2023-08-21T17:46:53;4.40;;;1.80;;
43014;SDS011;28637;50.554;7.032;2023-08-21T17:51:53;2.95;;;1.70;;
43014;SDS011;28637;50.554;7.032;2023-08-21T17:56:54;2.47;;;1.73;;
43014;SDS011;28637;50.554;7.032;2023-08-21T18:01:55;6.68;;;1.83;;
43014;SDS011;28637;50.554;7.032;2023-08-21T18:06:55;2.85;;;1.77;;
43014;SDS011;28637;50.554;7.032;2023-08-21T18:11:56;7.82;;;1.70;;
43014;SDS011;28637;50.554;7.032;2023-08-21T18:17:00;3.20;;;1.90;;
43014;SDS011;28637;50.554;7.032;2023-08-21T18:22:08;5.13;;;1.73;;
43014;SDS011;28637;50.554;7.032;2023-08-21T18:27:09;2.35;;;1.70;;
43014;SDS011;28637;50.554;7.032;2023-08-21T18:32:10;2.60;;;2.00;;
43014;SDS011;28637;50.554;7.032;2023-08-21T18:37:11;8.75;;;1.92;;
43014;SDS011;28637;50.554;7.032;2023-08-21T18:42:11;4.97;;;2.22;;
43014;SDS011;28637;50.554;7.032;2023-08-21T18:47:12;4.22;;;2.00;;
43014;SDS011;28637;50.554;7.032;2023-08-21T18:57:14;2.90;;;2.00;;
43014;SDS011;28637;50.554;7.032;2023-08-21T19:07:15;2.97;;;1.87;;
43014;SDS011;28637;50.554;7.032;2023-08-21T19:17:16;2.83;;;1.70;;
43014;SDS011;28637;50.554;7.032;2023-08-21T19:27:17;2.90;;;1.70;;
43014;SDS011;28637;50.554;7.032;2023-08-21T19:32:19;2.53;;;1.95;;
43014;SDS011;28637;50.554;7.032;2023-08-21T19:37:23;2.60;;;2.03;;
43014;SDS011;28637;50.554;7.032;2023-08-21T19:42:24;4.50;;;1.80;;
43014;SDS011;28637;50.554;7.032;2023-08-21T19:47:25;3.70;;;1.70;;
43014;SDS011;28637;50.554;7.032;2023-08-21T19:52:25;8.88;;;2.10;;
43014;SDS011;28637;50.554;7.032;2023-08-21T19:57:26;3.90;;;1.73;;
43014;SDS011;28637;50.554;7.032;2023-08-21T20:02:27;3.93;;;1.97;;
43014;SDS011;28637;50.554;7.032;2023-08-21T20:07:27;3.17;;;2.23;;
43014;SDS011;28637;50.554;7.032;2023-08-21T20:12:28;3.67;;;1.87;;
43014;SDS011;28637;50.554;7.032;2023-08-21T20:17:29;3.43;;;2.10;;
43014;SDS011;28637;50.554;7.032;2023-08-21T20:22:29;2.60;;;2.10;;
43014;SDS011;28637;50.554;7.032;2023-08-21T20:27:30;3.50;;;2.10;;
43014;SDS011;28637;50.554;7.032;2023-08-21T20:32:31;2.17;;;1.97;;
43014;SDS011;28637;50.554;7.032;2023-08-21T20:37:32;5.68;;;2.00;;
43014;SDS011;28637;50.554;7.032;2023-08-21T20:42:32;5.07;;;2.07;;
43014;SDS011;28637;50.554;7.032;2023-08-21T20:47:33;3.10;;;2.07;;
43014;SDS011;28637;50.554;7.032;2023-08-21T20:52:34;5.40;;;2.20;;
43014;SDS011;28637;50.554;7.032;2023-08-21T20:57:34;6.00;;;2.40;;
43014;SDS011;28637;50.554;7.032;2023-08-21T21:02:35;6.23;;;2.40;;
43014;SDS011;28637;50.554;7.032;2023-08-21T21:07:36;2.97;;;2.50;;
43014;SDS011;28637;50.554;7.032;2023-08-21T21:12:37;3.40;;;2.33;;
43014;SDS011;28637;50.554;7.032;2023-08-21T21:17:38;3.55;;;2.33;;
43014;SDS011;28637;50.554;7.032;2023-08-21T21:22:39;4.13;;;2.23;;
43014;SDS011;28637;50.554;7.032;2023-08-21T21:27:39;3.73;;;2.53;;
43014;SDS011;28637;50.554;7.032;2023-08-21T21:32:40;4.63;;;2.60;;
43014;SDS011;28637;50.554;7.032;2023-08-21T21:37:41;2.90;;;2.43;;
43014;SDS011;28637;50.554;7.032;2023-08-21T21:42:41;4.37;;;2.43;;
43014;SDS011;28637;50.554;7.032;2023-08-21T21:47:42;3.93;;;2.53;;
43014;SDS011;28637;50.554;7.032;2023-08-21T21:52:43;3.23;;;2.50;;
43014;SDS011;28637;50.554;7.032;2023-08-21T21:57:43;5.00;;;2.73;;
43014;SDS011;28637;50.554;7.032;2023-08-21T22:02:44;10.07;;;2.70;;
43014;SDS011;28637;50.554;7.032;2023-08-21T22:07:45;4.00;;;2.50;;
43014;SDS011;28637;50.554;7.032;2023-08-21T22:12:45;3.47;;;2.40;;
43014;SDS011;28637;50.554;7.032;2023-08-21T22:17:46;4.53;;;2.60;;
43014;SDS011;28637;50.554;7.032;2023-08-21T22:22:47;5.23;;;2.40;;
43014;SDS011;28637;50.554;7.032;2023-08-21T22:27:48;2.70;;;2.27;;
43014;SDS011;28637;50.554;7.032;2023-08-21T22:32:50;5.10;;;2.30;;
43014;SDS011;28637;50.554;7.032;2023-08-21T22:37:51;3.30;;;2.55;;
43014;SDS011;28637;50.554;7.032;2023-08-21T22:42:52;4.60;;;2.47;;
43014;SDS011;28637;50.554;7.032;2023-08-21T22:47:52;3.30;;;2.20;;
43014;SDS011;28637;50.554;7.032;2023-08-21T22:52:53;5.57;;;2.50;;
43014;SDS011;28637;50.554;7.032;2023-08-21T22:57:54;5.83;;;2.50;;
43014;SDS011;28637;50.554;7.032;2023-08-21T23:02:54;5.13;;;2.37;;
43014;SDS011;28637;50.554;7.032;2023-08-21T23:07:55;4.23;;;2.37;;
43014;SDS011;28637;50.554;7.032;2023-08-21T23:12:56;5.00;;;2.70;;
43014;SDS011;28637;50.554;7.032;2023-08-21T23:17:56;4.30;;;2.30;;
43014;SDS011;28637;50.554;7.032;2023-08-21T23:22:57;3.50;;;2.33;;
43014;SDS011;28637;50.554;7.032;2023-08-21T23:27:58;3.27;;;2.43;;
43014;SDS011;28637;50.554;7.032;2023-08-21T23:32:58;6.03;;;2.50;;
43014;SDS011;28637;50.554;7.032;2023-08-21T23:37:59;4.47;;;2.40;;
43014;SDS011;28637;50.554;7.032;2023-08-21T23:43:00;5.90;;;2.60;;
43014;SDS011;28637;50.554;7.032;2023-08-21T23:48:01;3.77;;;2.47;;
43014;SDS011;28637;50.554;7.032;2023-08-21T23:53:03;4.38;;;2.65;;
43014;SDS011;28637;50.554;7.032;2023-08-21T23:58:05;5.82;;;2.65;;
